FDX1437 KMEM-KMKE
Flight info
| Callsign | FDX1437 |
|---|---|
| Flight time | 1h 12m |
| Altitude | 35000 |
| Route | JTEEE5 ODATE ENL JOT LEEDN GOPAC3 |
| Aircraft | B763/H-SDE3FGHIJ2J3J5M3RWXY/LB1D1 |
Departure
| Time | 2026-04-14 09:04 |
|---|---|
| Airport | Memphis International Airport (KMEM) |
Arrival
| Time | 2026-04-14 10:17 |
|---|---|
| Airport | General Mitchell International Airport (KMKE) |
| Time | Latitude | Longitude | Altitude | Speed | Heading |
|---|---|---|---|---|---|
| 2026-04-14 08:48 | 35.06509 | -89.98084 | 254 ft | 0 kts | 182° |
| 2026-04-14 08:53 | 35.06517 | -89.98083 | 254 ft | 2 kts | 182° |
| 2026-04-14 08:54 | 35.06532 | -89.98083 | 254 ft | 2 kts | 182° |
| 2026-04-14 08:54 | 35.06546 | -89.98079 | 254 ft | 2 kts | 211° |
| 2026-04-14 08:54 | 35.06558 | -89.98068 | 254 ft | 2 kts | 234° |
| 2026-04-14 08:54 | 35.06564 | -89.98052 | 254 ft | 2 kts | 258° |
| 2026-04-14 08:55 | 35.06565 | -89.98041 | 254 ft | 0 kts | 273° |
| 2026-04-14 08:55 | 35.06565 | -89.98036 | 254 ft | 0 kts | 271° |
| 2026-04-14 08:57 | 35.06565 | -89.98041 | 254 ft | 2 kts | 274° |
| 2026-04-14 08:57 | 35.06572 | -89.98081 | 254 ft | 7 kts | 282° |
| 2026-04-14 08:57 | 35.06583 | -89.98180 | 252 ft | 14 kts | 270° |
| 2026-04-14 08:57 | 35.06553 | -89.98235 | 252 ft | 8 kts | 192° |
| 2026-04-14 08:58 | 35.06485 | -89.98241 | 253 ft | 10 kts | 182° |
| 2026-04-14 08:58 | 35.06404 | -89.98244 | 254 ft | 12 kts | 182° |
| 2026-04-14 08:58 | 35.06303 | -89.98248 | 254 ft | 15 kts | 182° |
| 2026-04-14 08:58 | 35.06187 | -89.98254 | 255 ft | 16 kts | 182° |
| 2026-04-14 08:59 | 35.06081 | -89.98259 | 257 ft | 11 kts | 182° |
| 2026-04-14 08:59 | 35.06023 | -89.98291 | 258 ft | 7 kts | 242° |
| 2026-04-14 08:59 | 35.06021 | -89.98363 | 258 ft | 10 kts | 272° |
| 2026-04-14 08:59 | 35.06023 | -89.98467 | 256 ft | 9 kts | 264° |
| 2026-04-14 09:00 | 35.05980 | -89.98514 | 256 ft | 8 kts | 186° |
| 2026-04-14 09:00 | 35.05918 | -89.98509 | 257 ft | 10 kts | 175° |
| 2026-04-14 09:00 | 35.05828 | -89.98505 | 259 ft | 15 kts | 180° |
| 2026-04-14 09:00 | 35.05709 | -89.98506 | 261 ft | 18 kts | 181° |
| 2026-04-14 09:01 | 35.05576 | -89.98508 | 265 ft | 18 kts | 180° |
| 2026-04-14 09:01 | 35.05440 | -89.98510 | 269 ft | 20 kts | 180° |
| 2026-04-14 09:01 | 35.05289 | -89.98511 | 273 ft | 21 kts | 180° |
| 2026-04-14 09:01 | 35.05150 | -89.98515 | 278 ft | 17 kts | 184° |
| 2026-04-14 09:02 | 35.05058 | -89.98552 | 279 ft | 9 kts | 206° |
| 2026-04-14 09:02 | 35.05006 | -89.98583 | 281 ft | 7 kts | 206° |
| 2026-04-14 09:02 | 35.04956 | -89.98614 | 282 ft | 8 kts | 208° |
| 2026-04-14 09:02 | 35.04934 | -89.98671 | 281 ft | 9 kts | 265° |
| 2026-04-14 09:03 | 35.04913 | -89.98740 | 280 ft | 7 kts | 205° |
| 2026-04-14 09:03 | 35.04893 | -89.98742 | 280 ft | 0 kts | 179° |
| 2026-04-14 09:03 | 35.04807 | -89.98741 | 281 ft | 36 kts | 179° |
| 2026-04-14 09:03 | 35.04364 | -89.98732 | 286 ft | 90 kts | 179° |
| 2026-04-14 09:04 | 35.03570 | -89.98715 | 298 ft | 137 kts | 179° |
| 2026-04-14 09:04 | 35.02466 | -89.98692 | 383 ft | 172 kts | 180° |
| 2026-04-14 09:04 | 35.01267 | -89.98669 | 976 ft | 175 kts | 182° |
| 2026-04-14 09:04 | 35.00090 | -89.98656 | 1758 ft | 168 kts | 192° |
| 2026-04-14 09:05 | 34.98918 | -89.99056 | 1976 ft | 190 kts | 204° |
| 2026-04-14 09:05 | 34.97589 | -89.99679 | 2312 ft | 214 kts | 204° |
| 2026-04-14 09:05 | 34.96150 | -90.00334 | 2867 ft | 229 kts | 205° |
| 2026-04-14 09:05 | 34.94833 | -90.01447 | 3425 ft | 239 kts | 233° |
| 2026-04-14 09:06 | 34.94208 | -90.03320 | 4200 ft | 248 kts | 262° |
| 2026-04-14 09:06 | 34.94190 | -90.05405 | 5006 ft | 253 kts | 267° |
| 2026-04-14 09:06 | 34.94177 | -90.07570 | 5770 ft | 258 kts | 268° |
| 2026-04-14 09:06 | 34.94186 | -90.09746 | 6571 ft | 262 kts | 274° |
| 2026-04-14 09:07 | 34.94703 | -90.11890 | 7265 ft | 272 kts | 293° |
| 2026-04-14 09:07 | 34.95519 | -90.13935 | 8070 ft | 274 kts | 292° |
| 2026-04-14 09:07 | 34.96344 | -90.16054 | 8835 ft | 278 kts | 293° |
| 2026-04-14 09:07 | 34.97318 | -90.18079 | 9542 ft | 285 kts | 310° |
| 2026-04-14 09:08 | 34.98929 | -90.19480 | 10256 ft | 294 kts | 336° |
| 2026-04-14 09:08 | 35.01006 | -90.19982 | 10721 ft | 313 kts | 354° |
| 2026-04-14 09:08 | 35.03230 | -90.20102 | 11100 ft | 330 kts | 354° |
| 2026-04-14 09:08 | 35.05562 | -90.20248 | 11492 ft | 347 kts | 355° |
| 2026-04-14 09:09 | 35.08050 | -90.20358 | 11863 ft | 366 kts | 359° |
| 2026-04-14 09:09 | 35.10668 | -90.19885 | 12247 ft | 387 kts | 13° |
| 2026-04-14 09:09 | 35.13279 | -90.19029 | 13008 ft | 392 kts | 11° |
| 2026-04-14 09:09 | 35.15923 | -90.18227 | 13731 ft | 398 kts | 12° |
| 2026-04-14 09:10 | 35.18610 | -90.17397 | 14465 ft | 403 kts | 12° |
| 2026-04-14 09:10 | 35.21348 | -90.16551 | 15165 ft | 408 kts | 12° |
| 2026-04-14 09:10 | 35.24118 | -90.15698 | 15816 ft | 414 kts | 12° |
| 2026-04-14 09:10 | 35.26948 | -90.14822 | 16437 ft | 420 kts | 12° |
| 2026-04-14 09:11 | 35.29757 | -90.13953 | 17185 ft | 422 kts | 12° |
| 2026-04-14 09:11 | 35.32640 | -90.13060 | 17767 ft | 428 kts | 12° |
| 2026-04-14 09:11 | 35.35524 | -90.12165 | 18417 ft | 432 kts | 11° |
| 2026-04-14 09:11 | 35.38424 | -90.11266 | 19080 ft | 435 kts | 11° |
| 2026-04-14 09:12 | 35.41392 | -90.10344 | 19706 ft | 439 kts | 11° |
| 2026-04-14 09:12 | 35.44375 | -90.09418 | 20302 ft | 443 kts | 11° |
| 2026-04-14 09:12 | 35.47365 | -90.08488 | 20901 ft | 446 kts | 11° |
| 2026-04-14 09:12 | 35.50373 | -90.07553 | 21443 ft | 450 kts | 10° |
| 2026-04-14 09:13 | 35.53429 | -90.06602 | 21973 ft | 454 kts | 10° |
| 2026-04-14 09:13 | 35.56481 | -90.05651 | 22536 ft | 457 kts | 10° |
| 2026-04-14 09:13 | 35.59607 | -90.04678 | 23013 ft | 461 kts | 9° |
| 2026-04-14 09:13 | 35.62717 | -90.03987 | 23519 ft | 460 kts | 0° |
| 2026-04-14 09:14 | 35.65919 | -90.03935 | 24078 ft | 459 kts | 351° |
| 2026-04-14 09:14 | 35.69105 | -90.04195 | 24711 ft | 463 kts | 352° |
| 2026-04-14 09:14 | 35.72358 | -90.04438 | 25269 ft | 468 kts | 351° |
| 2026-04-14 09:14 | 35.75606 | -90.04668 | 25846 ft | 473 kts | 354° |
| 2026-04-14 09:15 | 35.78955 | -90.04428 | 26408 ft | 484 kts | 4° |
| 2026-04-14 09:15 | 35.82246 | -90.03564 | 26909 ft | 494 kts | 10° |
| 2026-04-14 09:15 | 35.85569 | -90.02470 | 27421 ft | 498 kts | 9° |
| 2026-04-14 09:15 | 35.88947 | -90.01372 | 27956 ft | 502 kts | 9° |
| 2026-04-14 09:16 | 35.92330 | -90.00269 | 28407 ft | 507 kts | 9° |
| 2026-04-14 09:16 | 35.95741 | -89.99154 | 28962 ft | 509 kts | 9° |
| 2026-04-14 09:16 | 35.99206 | -89.98021 | 29422 ft | 513 kts | 9° |
| 2026-04-14 09:16 | 36.02604 | -89.96907 | 30134 ft | 511 kts | 9° |
| 2026-04-14 09:17 | 36.06052 | -89.95777 | 30767 ft | 510 kts | 9° |
| 2026-04-14 09:17 | 36.09482 | -89.94653 | 31421 ft | 509 kts | 9° |
| 2026-04-14 09:17 | 36.12875 | -89.93537 | 32186 ft | 504 kts | 9° |
| 2026-04-14 09:17 | 36.16244 | -89.92431 | 32791 ft | 503 kts | 9° |
| 2026-04-14 09:18 | 36.19608 | -89.91326 | 33262 ft | 504 kts | 9° |
| 2026-04-14 09:18 | 36.22990 | -89.90212 | 33855 ft | 502 kts | 9° |
| 2026-04-14 09:18 | 36.26357 | -89.89102 | 34525 ft | 500 kts | 9° |
| 2026-04-14 09:18 | 36.29731 | -89.87990 | 35042 ft | 499 kts | 9° |
| 2026-04-14 09:19 | 36.36377 | -89.85796 | 35057 ft | 492 kts | 8° |
| 2026-04-14 09:19 | 36.42951 | -89.83622 | 35048 ft | 493 kts | 8° |
| 2026-04-14 09:20 | 36.49610 | -89.81417 | 35043 ft | 495 kts | 8° |
| 2026-04-14 09:20 | 36.56274 | -89.79205 | 35048 ft | 496 kts | 8° |
| 2026-04-14 09:21 | 36.62944 | -89.76987 | 35042 ft | 495 kts | 8° |
| 2026-04-14 09:21 | 36.69561 | -89.74784 | 35040 ft | 496 kts | 8° |
| 2026-04-14 09:22 | 36.76234 | -89.72558 | 35037 ft | 498 kts | 9° |
| 2026-04-14 09:22 | 36.82954 | -89.70310 | 35031 ft | 497 kts | 8° |
| 2026-04-14 09:23 | 36.89606 | -89.68082 | 35037 ft | 495 kts | 8° |
| 2026-04-14 09:23 | 36.96255 | -89.65852 | 35037 ft | 497 kts | 8° |
| 2026-04-14 09:24 | 37.02892 | -89.63622 | 35034 ft | 497 kts | 8° |
| 2026-04-14 09:24 | 37.09562 | -89.61375 | 35036 ft | 496 kts | 8° |
| 2026-04-14 09:25 | 37.16233 | -89.59126 | 35034 ft | 498 kts | 8° |
| 2026-04-14 09:25 | 37.22905 | -89.56870 | 35027 ft | 496 kts | 8° |
| 2026-04-14 09:26 | 37.29579 | -89.54610 | 35030 ft | 495 kts | 8° |
| 2026-04-14 09:26 | 37.36222 | -89.52357 | 35026 ft | 494 kts | 8° |
| 2026-04-14 09:27 | 37.42866 | -89.50100 | 35014 ft | 494 kts | 8° |
| 2026-04-14 09:27 | 37.49476 | -89.47850 | 35010 ft | 495 kts | 8° |
| 2026-04-14 09:28 | 37.56108 | -89.45588 | 35013 ft | 495 kts | 8° |
| 2026-04-14 09:28 | 37.62785 | -89.43307 | 35007 ft | 496 kts | 8° |
| 2026-04-14 09:29 | 37.69407 | -89.41039 | 35011 ft | 495 kts | 8° |
| 2026-04-14 09:29 | 37.76027 | -89.38769 | 35000 ft | 494 kts | 8° |
| 2026-04-14 09:30 | 37.82667 | -89.36488 | 35010 ft | 494 kts | 8° |
| 2026-04-14 09:30 | 37.89309 | -89.34201 | 34995 ft | 493 kts | 8° |
| 2026-04-14 09:31 | 37.95900 | -89.31928 | 34984 ft | 493 kts | 8° |
| 2026-04-14 09:31 | 38.02523 | -89.29640 | 34977 ft | 495 kts | 8° |
| 2026-04-14 09:32 | 38.09163 | -89.27341 | 34978 ft | 496 kts | 8° |
| 2026-04-14 09:33 | 38.19143 | -89.23877 | 34980 ft | 493 kts | 8° |
| 2026-04-14 09:33 | 38.25716 | -89.21591 | 34972 ft | 494 kts | 8° |
| 2026-04-14 09:34 | 38.32352 | -89.19280 | 34984 ft | 495 kts | 8° |
| 2026-04-14 09:34 | 38.39014 | -89.16952 | 34976 ft | 493 kts | 8° |
| 2026-04-14 09:35 | 38.45597 | -89.14705 | 34988 ft | 488 kts | 3° |
| 2026-04-14 09:35 | 38.52290 | -89.13163 | 34994 ft | 490 kts | 4° |
| 2026-04-14 09:36 | 38.58972 | -89.11503 | 34990 ft | 491 kts | 4° |
| 2026-04-14 09:36 | 38.65640 | -89.09804 | 34984 ft | 490 kts | 4° |
| 2026-04-14 09:37 | 38.72286 | -89.08095 | 34981 ft | 490 kts | 4° |
| 2026-04-14 09:37 | 38.78998 | -89.06358 | 34965 ft | 490 kts | 4° |
| 2026-04-14 09:38 | 38.85690 | -89.04621 | 34961 ft | 491 kts | 4° |
| 2026-04-14 09:38 | 38.92338 | -89.02891 | 34936 ft | 490 kts | 4° |
| 2026-04-14 09:39 | 38.99024 | -89.01148 | 34938 ft | 489 kts | 4° |
| 2026-04-14 09:39 | 39.05654 | -88.99416 | 34936 ft | 489 kts | 4° |
| 2026-04-14 09:40 | 39.12345 | -88.97667 | 34927 ft | 491 kts | 4° |
| 2026-04-14 09:40 | 39.19042 | -88.95911 | 34932 ft | 491 kts | 4° |
| 2026-04-14 09:41 | 39.25712 | -88.94157 | 34930 ft | 490 kts | 4° |
| 2026-04-14 09:41 | 39.32378 | -88.92403 | 34933 ft | 489 kts | 4° |
| 2026-04-14 09:42 | 39.39009 | -88.90655 | 34929 ft | 490 kts | 4° |
| 2026-04-14 09:42 | 39.45705 | -88.88885 | 34922 ft | 489 kts | 4° |
| 2026-04-14 09:43 | 39.52358 | -88.87125 | 34919 ft | 491 kts | 4° |
| 2026-04-14 09:43 | 39.59020 | -88.85358 | 34924 ft | 491 kts | 4° |
| 2026-04-14 09:44 | 39.65731 | -88.83572 | 34934 ft | 491 kts | 4° |
| 2026-04-14 09:44 | 39.72405 | -88.81795 | 34933 ft | 489 kts | 4° |
| 2026-04-14 09:45 | 39.79061 | -88.80020 | 34936 ft | 493 kts | 4° |
| 2026-04-14 09:45 | 39.85757 | -88.78228 | 34925 ft | 489 kts | 4° |
| 2026-04-14 09:46 | 39.92429 | -88.76441 | 34926 ft | 490 kts | 4° |
| 2026-04-14 09:46 | 39.99110 | -88.74649 | 34921 ft | 492 kts | 4° |
| 2026-04-14 09:47 | 40.05815 | -88.72845 | 34914 ft | 491 kts | 4° |
| 2026-04-14 09:47 | 40.12468 | -88.71052 | 34912 ft | 492 kts | 4° |
| 2026-04-14 09:48 | 40.19188 | -88.69237 | 34901 ft | 492 kts | 4° |
| 2026-04-14 09:48 | 40.25851 | -88.67434 | 34903 ft | 492 kts | 4° |
| 2026-04-14 09:49 | 40.32561 | -88.65614 | 34908 ft | 492 kts | 4° |
| 2026-04-14 09:49 | 40.39254 | -88.63796 | 34894 ft | 493 kts | 4° |
| 2026-04-14 09:50 | 40.45978 | -88.61965 | 34895 ft | 494 kts | 4° |
| 2026-04-14 09:50 | 40.52683 | -88.60135 | 34889 ft | 491 kts | 4° |
| 2026-04-14 09:51 | 40.59362 | -88.58311 | 34888 ft | 494 kts | 4° |
| 2026-04-14 09:51 | 40.66067 | -88.56473 | 34886 ft | 494 kts | 4° |
| 2026-04-14 09:52 | 40.72801 | -88.54624 | 34885 ft | 492 kts | 4° |
| 2026-04-14 09:52 | 40.79503 | -88.52781 | 34884 ft | 494 kts | 4° |
| 2026-04-14 09:53 | 40.86202 | -88.50935 | 34881 ft | 492 kts | 4° |
| 2026-04-14 09:53 | 40.92907 | -88.49084 | 34884 ft | 496 kts | 4° |
| 2026-04-14 09:54 | 40.99618 | -88.47225 | 34874 ft | 494 kts | 4° |
| 2026-04-14 09:54 | 41.06342 | -88.45361 | 34719 ft | 496 kts | 4° |
| 2026-04-14 09:54 | 41.09714 | -88.44428 | 34119 ft | 498 kts | 4° |
| 2026-04-14 09:55 | 41.13061 | -88.43489 | 33945 ft | 487 kts | 4° |
| 2026-04-14 09:55 | 41.16385 | -88.42567 | 33231 ft | 489 kts | 4° |
| 2026-04-14 09:55 | 41.19674 | -88.41650 | 32622 ft | 487 kts | 4° |
| 2026-04-14 09:55 | 41.23006 | -88.40721 | 32005 ft | 486 kts | 5° |
| 2026-04-14 09:56 | 41.26276 | -88.39808 | 31416 ft | 485 kts | 5° |
| 2026-04-14 09:56 | 41.29599 | -88.38880 | 30836 ft | 485 kts | 5° |
| 2026-04-14 09:56 | 41.32875 | -88.37965 | 30264 ft | 487 kts | 5° |
| 2026-04-14 09:56 | 41.36212 | -88.37032 | 29693 ft | 490 kts | 5° |
| 2026-04-14 09:57 | 41.39524 | -88.36103 | 29143 ft | 492 kts | 5° |
| 2026-04-14 09:57 | 41.42878 | -88.35160 | 28611 ft | 488 kts | 5° |
| 2026-04-14 09:57 | 41.46151 | -88.34239 | 28044 ft | 485 kts | 6° |
| 2026-04-14 09:57 | 41.49426 | -88.33318 | 27452 ft | 482 kts | 6° |
| 2026-04-14 09:58 | 41.52681 | -88.32407 | 26986 ft | 474 kts | 5° |
| 2026-04-14 09:58 | 41.55922 | -88.31904 | 26776 ft | 458 kts | 356° |
| 2026-04-14 09:58 | 41.59121 | -88.31834 | 26030 ft | 466 kts | 355° |
| 2026-04-14 09:58 | 41.62360 | -88.31771 | 25368 ft | 465 kts | 355° |
| 2026-04-14 09:59 | 41.65555 | -88.31722 | 24725 ft | 463 kts | 355° |
| 2026-04-14 09:59 | 41.68778 | -88.31676 | 24094 ft | 459 kts | 355° |
| 2026-04-14 09:59 | 41.71957 | -88.31651 | 23638 ft | 451 kts | 353° |
| 2026-04-14 09:59 | 41.75059 | -88.31864 | 23178 ft | 442 kts | 351° |
| 2026-04-14 10:00 | 41.78112 | -88.32048 | 22804 ft | 436 kts | 352° |
| 2026-04-14 10:00 | 41.81119 | -88.32243 | 22436 ft | 431 kts | 352° |
| 2026-04-14 10:00 | 41.84100 | -88.32430 | 22064 ft | 428 kts | 352° |
| 2026-04-14 10:00 | 41.87080 | -88.32619 | 21693 ft | 426 kts | 352° |
| 2026-04-14 10:01 | 41.89999 | -88.32803 | 21326 ft | 422 kts | 352° |
| 2026-04-14 10:01 | 41.92905 | -88.32986 | 20953 ft | 418 kts | 352° |
| 2026-04-14 10:01 | 41.95830 | -88.33172 | 20578 ft | 417 kts | 352° |
| 2026-04-14 10:01 | 41.98716 | -88.33353 | 20207 ft | 414 kts | 352° |
| 2026-04-14 10:02 | 42.01577 | -88.33534 | 19817 ft | 410 kts | 352° |
| 2026-04-14 10:02 | 42.04429 | -88.33713 | 19451 ft | 407 kts | 352° |
| 2026-04-14 10:02 | 42.07240 | -88.33891 | 19063 ft | 406 kts | 351° |
| 2026-04-14 10:02 | 42.10046 | -88.34068 | 18696 ft | 400 kts | 351° |
| 2026-04-14 10:03 | 42.12793 | -88.34242 | 18315 ft | 399 kts | 351° |
| 2026-04-14 10:03 | 42.15563 | -88.34418 | 17975 ft | 398 kts | 351° |
| 2026-04-14 10:03 | 42.18296 | -88.34591 | 17678 ft | 393 kts | 351° |
| 2026-04-14 10:03 | 42.21019 | -88.34766 | 17344 ft | 393 kts | 351° |
| 2026-04-14 10:04 | 42.23750 | -88.34940 | 16995 ft | 392 kts | 351° |
| 2026-04-14 10:04 | 42.26461 | -88.35208 | 16446 ft | 390 kts | 348° |
| 2026-04-14 10:04 | 42.29152 | -88.35535 | 15720 ft | 393 kts | 349° |
| 2026-04-14 10:04 | 42.31866 | -88.35859 | 14994 ft | 395 kts | 349° |
| 2026-04-14 10:05 | 42.34599 | -88.36182 | 14531 ft | 388 kts | 349° |
| 2026-04-14 10:05 | 42.37199 | -88.36529 | 14407 ft | 371 kts | 347° |
| 2026-04-14 10:05 | 42.39765 | -88.36990 | 13847 ft | 370 kts | 347° |
| 2026-04-14 10:05 | 42.42298 | -88.37427 | 13361 ft | 367 kts | 346° |
| 2026-04-14 10:06 | 42.44783 | -88.37859 | 12993 ft | 360 kts | 347° |
| 2026-04-14 10:06 | 42.47219 | -88.38276 | 12979 ft | 343 kts | 346° |
| 2026-04-14 10:06 | 42.49538 | -88.38675 | 12830 ft | 327 kts | 346° |
| 2026-04-14 10:06 | 42.51712 | -88.39050 | 12683 ft | 312 kts | 346° |
| 2026-04-14 10:07 | 42.53847 | -88.39419 | 12382 ft | 301 kts | 345° |
| 2026-04-14 10:07 | 42.55894 | -88.39781 | 11956 ft | 298 kts | 346° |
| 2026-04-14 10:07 | 42.57961 | -88.39998 | 11916 ft | 301 kts | 359° |
| 2026-04-14 10:07 | 42.60008 | -88.39159 | 11977 ft | 320 kts | 25° |
| 2026-04-14 10:08 | 42.61818 | -88.37230 | 11798 ft | 344 kts | 43° |
| 2026-04-14 10:08 | 42.63211 | -88.34570 | 11307 ft | 354 kts | 63° |
| 2026-04-14 10:08 | 42.64133 | -88.31563 | 11327 ft | 340 kts | 66° |
| 2026-04-14 10:08 | 42.65013 | -88.28554 | 10858 ft | 342 kts | 66° |
| 2026-04-14 10:09 | 42.65877 | -88.25610 | 10545 ft | 333 kts | 66° |
| 2026-04-14 10:09 | 42.66711 | -88.22740 | 10203 ft | 327 kts | 70° |
| 2026-04-14 10:09 | 42.67066 | -88.19748 | 9887 ft | 323 kts | 93° |
| 2026-04-14 10:09 | 42.66911 | -88.16710 | 9577 ft | 319 kts | 96° |
| 2026-04-14 10:10 | 42.66716 | -88.13710 | 9106 ft | 318 kts | 96° |
| 2026-04-14 10:10 | 42.66523 | -88.10754 | 8678 ft | 316 kts | 96° |
| 2026-04-14 10:10 | 42.66335 | -88.07787 | 8179 ft | 315 kts | 96° |
| 2026-04-14 10:10 | 42.66145 | -88.04855 | 7833 ft | 311 kts | 96° |
| 2026-04-14 10:11 | 42.65955 | -88.01966 | 7368 ft | 311 kts | 96° |
| 2026-04-14 10:11 | 42.65768 | -87.99035 | 6991 ft | 308 kts | 96° |
| 2026-04-14 10:11 | 42.65583 | -87.96152 | 6584 ft | 305 kts | 96° |
| 2026-04-14 10:11 | 42.65630 | -87.93298 | 6102 ft | 305 kts | 73° |
| 2026-04-14 10:12 | 42.66605 | -87.90844 | 5764 ft | 293 kts | 37° |
| 2026-04-14 10:12 | 42.68293 | -87.89551 | 5455 ft | 274 kts | 2° |
| 2026-04-14 10:12 | 42.70074 | -87.89752 | 5168 ft | 250 kts | 329° |
| 2026-04-14 10:12 | 42.71577 | -87.90820 | 4872 ft | 244 kts | 322° |
| 2026-04-14 10:13 | 42.73033 | -87.91982 | 4631 ft | 242 kts | 322° |
| 2026-04-14 10:13 | 42.74622 | -87.92780 | 4348 ft | 252 kts | 351° |
| 2026-04-14 10:13 | 42.76387 | -87.92564 | 4089 ft | 255 kts | 359° |
| 2026-04-14 10:13 | 42.78144 | -87.92275 | 3735 ft | 255 kts | 359° |
| 2026-04-14 10:14 | 42.79901 | -87.91990 | 3355 ft | 252 kts | 359° |
| 2026-04-14 10:14 | 42.81617 | -87.91702 | 3012 ft | 248 kts | 0° |
| 2026-04-14 10:14 | 42.83282 | -87.91419 | 2729 ft | 232 kts | 1° |
| 2026-04-14 10:14 | 42.84831 | -87.91155 | 2427 ft | 218 kts | 1° |
| 2026-04-14 10:15 | 42.86279 | -87.90912 | 2132 ft | 201 kts | 3° |
| 2026-04-14 10:15 | 42.87615 | -87.90687 | 1836 ft | 184 kts | 4° |
| 2026-04-14 10:15 | 42.88804 | -87.90482 | 1634 ft | 164 kts | 5° |
| 2026-04-14 10:15 | 42.89905 | -87.90298 | 1366 ft | 154 kts | 5° |
| 2026-04-14 10:16 | 42.90955 | -87.90124 | 1152 ft | 151 kts | 6° |
| 2026-04-14 10:16 | 42.91998 | -87.89948 | 966 ft | 152 kts | 7° |
| 2026-04-14 10:16 | 42.93042 | -87.89768 | 769 ft | 151 kts | 8° |
| 2026-04-14 10:16 | 42.94064 | -87.89592 | 684 ft | 140 kts | 7° |
| 2026-04-14 10:17 | 42.94780 | -87.89468 | 677 ft | 61 kts | 7° |
| 2026-04-14 10:17 | 42.94958 | -87.89448 | 675 ft | 7 kts | 322° |
| 2026-04-14 10:17 | 42.94973 | -87.89535 | 675 ft | 10 kts | 267° |
| 2026-04-14 10:17 | 42.94926 | -87.89597 | 676 ft | 10 kts | 190° |
| 2026-04-14 10:18 | 42.94804 | -87.89616 | 677 ft | 8 kts | 187° |
| 2026-04-14 10:18 | 42.94732 | -87.89627 | 677 ft | 12 kts | 187° |
| 2026-04-14 10:18 | 42.94632 | -87.89645 | 678 ft | 16 kts | 187° |
| 2026-04-14 10:19 | 42.94537 | -87.89700 | 681 ft | 14 kts | 232° |
| 2026-04-14 10:19 | 42.94498 | -87.89830 | 681 ft | 15 kts | 251° |
| 2026-04-14 10:19 | 42.94462 | -87.89975 | 684 ft | 16 kts | 251° |
| 2026-04-14 10:19 | 42.94426 | -87.90123 | 685 ft | 16 kts | 251° |
| 2026-04-14 10:20 | 42.94394 | -87.90256 | 687 ft | 14 kts | 252° |
| 2026-04-14 10:20 | 42.94363 | -87.90383 | 688 ft | 14 kts | 251° |
| 2026-04-14 10:20 | 42.94334 | -87.90501 | 691 ft | 11 kts | 252° |
| 2026-04-14 10:20 | 42.94310 | -87.90599 | 693 ft | 9 kts | 251° |
| 2026-04-14 10:21 | 42.94290 | -87.90683 | 695 ft | 8 kts | 251° |
| 2026-04-14 10:21 | 42.94271 | -87.90762 | 697 ft | 8 kts | 251° |
| 2026-04-14 10:21 | 42.94251 | -87.90846 | 699 ft | 9 kts | 251° |
| 2026-04-14 10:21 | 42.94231 | -87.90926 | 702 ft | 8 kts | 251° |
| 2026-04-14 10:22 | 42.94209 | -87.91013 | 704 ft | 10 kts | 252° |
| 2026-04-14 10:22 | 42.94188 | -87.91101 | 707 ft | 8 kts | 252° |
| 2026-04-14 10:22 | 42.94191 | -87.91157 | 709 ft | 3 kts | 303° |
| 2026-04-14 10:22 | 42.94217 | -87.91182 | 710 ft | 5 kts | 333° |
| 2026-04-14 10:23 | 42.94264 | -87.91194 | 709 ft | 7 kts | 13° |
| 2026-04-14 10:23 | 42.94308 | -87.91153 | 707 ft | 7 kts | 19° |
| 2026-04-14 10:23 | 42.94340 | -87.91156 | 707 ft | 3 kts | 340° |
| 2026-04-14 10:23 | 42.94347 | -87.91159 | 707 ft | 0 kts | 340° |